sensor_id;sensor_type;location;lat;lon;timestamp;temperature;humidity
30678;DHT22;17437;47.188;8.896;2022-09-12T00:01:06;14.20;99.90
30678;DHT22;17437;47.188;8.896;2022-09-12T00:03:39;14.20;99.90
30678;DHT22;17437;47.188;8.896;2022-09-12T00:06:14;14.10;99.90
30678;DHT22;17437;47.188;8.896;2022-09-12T00:08:47;14.10;99.90
30678;DHT22;17437;47.188;8.896;2022-09-12T00:11:19;14.00;99.90
30678;DHT22;17437;47.188;8.896;2022-09-12T00:13:51;14.00;99.90
30678;DHT22;17437;47.188;8.896;2022-09-12T00:16:25;14.00;99.90
30678;DHT22;17437;47.188;8.896;2022-09-12T00:18:57;14.10;99.90
30678;DHT22;17437;47.188;8.896;2022-09-12T00:21:29;14.10;99.90
30678;DHT22;17437;47.188;8.896;2022-09-12T00:24:00;14.10;99.90
30678;DHT22;17437;47.188;8.896;2022-09-12T00:26:32;14.00;99.90
30678;DHT22;17437;47.188;8.896;2022-09-12T00:29:03;14.00;99.90
30678;DHT22;17437;47.188;8.896;2022-09-12T00:31:35;13.90;99.90
30678;DHT22;17437;47.188;8.896;2022-09-12T00:34:07;13.90;99.90
30678;DHT22;17437;47.188;8.896;2022-09-12T00:36:40;13.80;99.90
30678;DHT22;17437;47.188;8.896;2022-09-12T00:39:14;13.80;99.90
30678;DHT22;17437;47.188;8.896;2022-09-12T00:41:46;13.70;99.90
30678;DHT22;17437;47.188;8.896;2022-09-12T00:44:44;13.80;99.90
30678;DHT22;17437;47.188;8.896;2022-09-12T00:47:20;13.80;99.90
30678;DHT22;17437;47.188;8.896;2022-09-12T00:49:56;13.80;99.90
30678;DHT22;17437;47.188;8.896;2022-09-12T00:52:31;13.80;99.90
30678;DHT22;17437;47.188;8.896;2022-09-12T00:55:06;13.80;99.90
30678;DHT22;17437;47.188;8.896;2022-09-12T00:57:41;13.80;99.90
30678;DHT22;17437;47.188;8.896;2022-09-12T01:00:16;13.70;99.90
30678;DHT22;17437;47.188;8.896;2022-09-12T01:02:51;13.70;99.90
30678;DHT22;17437;47.188;8.896;2022-09-12T01:05:24;13.70;99.90
30678;DHT22;17437;47.188;8.896;2022-09-12T01:07:57;13.70;99.90
30678;DHT22;17437;47.188;8.896;2022-09-12T01:10:30;13.70;99.90
30678;DHT22;17437;47.188;8.896;2022-09-12T01:13:03;13.70;99.90
30678;DHT22;17437;47.188;8.896;2022-09-12T01:15:37;13.60;99.90
30678;DHT22;17437;47.188;8.896;2022-09-12T01:18:14;13.60;99.90
30678;DHT22;17437;47.188;8.896;2022-09-12T01:21:10;13.50;99.90
30678;DHT22;17437;47.188;8.896;2022-09-12T01:24:26;13.40;99.90
30678;DHT22;17437;47.188;8.896;2022-09-12T01:27:31;13.30;99.90
30678;DHT22;17437;47.188;8.896;2022-09-12T01:30:47;13.30;99.90
30678;DHT22;17437;47.188;8.896;2022-09-12T01:33:34;13.30;99.90
30678;DHT22;17437;47.188;8.896;2022-09-12T01:39:11;13.30;99.90
30678;DHT22;17437;47.188;8.896;2022-09-12T01:41:47;13.20;99.90
30678;DHT22;17437;47.188;8.896;2022-09-12T01:44:28;13.20;99.90
30678;DHT22;17437;47.188;8.896;2022-09-12T01:47:01;13.20;99.90
30678;DHT22;17437;47.188;8.896;2022-09-12T01:49:40;13.20;99.90
30678;DHT22;17437;47.188;8.896;2022-09-12T01:52:17;13.20;99.90
30678;DHT22;17437;47.188;8.896;2022-09-12T01:54:52;13.10;99.90
30678;DHT22;17437;47.188;8.896;2022-09-12T01:57:27;13.10;99.90
30678;DHT22;17437;47.188;8.896;2022-09-12T02:00:03;13.20;99.90
30678;DHT22;17437;47.188;8.896;2022-09-12T02:02:36;13.20;99.90
30678;DHT22;17437;47.188;8.896;2022-09-12T02:05:11;13.10;99.90
30678;DHT22;17437;47.188;8.896;2022-09-12T02:07:45;13.10;99.90
30678;DHT22;17437;47.188;8.896;2022-09-12T02:10:20;13.00;99.90
30678;DHT22;17437;47.188;8.896;2022-09-12T02:12:55;13.00;99.90
30678;DHT22;17437;47.188;8.896;2022-09-12T02:15:31;13.00;99.90
30678;DHT22;17437;47.188;8.896;2022-09-12T02:18:03;13.00;99.90
30678;DHT22;17437;47.188;8.896;2022-09-12T02:20:37;13.00;99.90
30678;DHT22;17437;47.188;8.896;2022-09-12T02:23:14;13.00;99.90
30678;DHT22;17437;47.188;8.896;2022-09-12T02:25:47;13.00;99.90
30678;DHT22;17437;47.188;8.896;2022-09-12T02:28:22;13.00;99.90
30678;DHT22;17437;47.188;8.896;2022-09-12T02:31:00;12.90;99.90
30678;DHT22;17437;47.188;8.896;2022-09-12T02:33:35;12.90;99.90
30678;DHT22;17437;47.188;8.896;2022-09-12T02:36:11;12.80;99.90
30678;DHT22;17437;47.188;8.896;2022-09-12T02:38:45;12.80;99.90
30678;DHT22;17437;47.188;8.896;2022-09-12T02:41:18;12.80;99.90
30678;DHT22;17437;47.188;8.896;2022-09-12T02:43:51;12.80;99.90
30678;DHT22;17437;47.188;8.896;2022-09-12T02:46:25;12.80;99.90
30678;DHT22;17437;47.188;8.896;2022-09-12T02:48:58;12.80;99.90
30678;DHT22;17437;47.188;8.896;2022-09-12T02:51:29;12.90;99.90
30678;DHT22;17437;47.188;8.896;2022-09-12T02:54:02;12.80;99.90
30678;DHT22;17437;47.188;8.896;2022-09-12T02:56:39;12.80;99.90
30678;DHT22;17437;47.188;8.896;2022-09-12T02:59:13;12.70;99.90
30678;DHT22;17437;47.188;8.896;2022-09-12T03:01:57;12.70;99.90
30678;DHT22;17437;47.188;8.896;2022-09-12T03:04:47;12.70;99.90
30678;DHT22;17437;47.188;8.896;2022-09-12T03:07:25;12.60;99.90
30678;DHT22;17437;47.188;8.896;2022-09-12T03:10:00;12.60;99.90
30678;DHT22;17437;47.188;8.896;2022-09-12T03:12:39;12.60;99.90
30678;DHT22;17437;47.188;8.896;2022-09-12T03:15:20;12.60;99.90
30678;DHT22;17437;47.188;8.896;2022-09-12T03:18:00;12.60;99.90
30678;DHT22;17437;47.188;8.896;2022-09-12T03:20:39;12.60;99.90
30678;DHT22;17437;47.188;8.896;2022-09-12T03:23:13;12.60;99.90
30678;DHT22;17437;47.188;8.896;2022-09-12T03:25:47;12.60;99.90
30678;DHT22;17437;47.188;8.896;2022-09-12T03:28:20;12.60;99.90
30678;DHT22;17437;47.188;8.896;2022-09-12T03:30:52;12.50;99.90
30678;DHT22;17437;47.188;8.896;2022-09-12T03:33:26;12.50;99.90
30678;DHT22;17437;47.188;8.896;2022-09-12T03:35:59;12.40;99.90
30678;DHT22;17437;47.188;8.896;2022-09-12T03:38:30;12.40;99.90
30678;DHT22;17437;47.188;8.896;2022-09-12T03:41:02;12.40;99.90
30678;DHT22;17437;47.188;8.896;2022-09-12T03:43:34;12.40;99.90
30678;DHT22;17437;47.188;8.896;2022-09-12T03:46:05;12.40;99.90
30678;DHT22;17437;47.188;8.896;2022-09-12T03:48:37;12.40;99.90
30678;DHT22;17437;47.188;8.896;2022-09-12T03:51:10;12.30;99.90
30678;DHT22;17437;47.188;8.896;2022-09-12T03:53:42;12.30;99.90
30678;DHT22;17437;47.188;8.896;2022-09-12T03:56:14;12.30;99.90
30678;DHT22;17437;47.188;8.896;2022-09-12T03:58:45;12.20;99.90
30678;DHT22;17437;47.188;8.896;2022-09-12T04:01:18;12.20;99.90
30678;DHT22;17437;47.188;8.896;2022-09-12T04:03:51;12.20;99.90
30678;DHT22;17437;47.188;8.896;2022-09-12T04:06:23;12.10;99.90
30678;DHT22;17437;47.188;8.896;2022-09-12T04:08:54;12.10;99.90
30678;DHT22;17437;47.188;8.896;2022-09-12T04:11:26;12.00;99.90
30678;DHT22;17437;47.188;8.896;2022-09-12T04:13:57;12.00;99.90
30678;DHT22;17437;47.188;8.896;2022-09-12T04:16:29;11.90;99.90
30678;DHT22;17437;47.188;8.896;2022-09-12T04:19:01;11.90;99.90
30678;DHT22;17437;47.188;8.896;2022-09-12T04:21:32;11.90;99.90
30678;DHT22;17437;47.188;8.896;2022-09-12T04:24:04;11.80;99.90
30678;DHT22;17437;47.188;8.896;2022-09-12T04:26:35;11.90;99.90
30678;DHT22;17437;47.188;8.896;2022-09-12T04:29:08;11.80;99.90
30678;DHT22;17437;47.188;8.896;2022-09-12T04:31:40;11.80;99.90
30678;DHT22;17437;47.188;8.896;2022-09-12T04:34:11;11.80;99.90
30678;DHT22;17437;47.188;8.896;2022-09-12T04:36:43;11.80;99.90
30678;DHT22;17437;47.188;8.896;2022-09-12T04:39:14;11.80;99.90
30678;DHT22;17437;47.188;8.896;2022-09-12T04:41:46;11.70;99.90
30678;DHT22;17437;47.188;8.896;2022-09-12T04:44:18;11.70;99.90
30678;DHT22;17437;47.188;8.896;2022-09-12T04:46:49;11.70;99.90
30678;DHT22;17437;47.188;8.896;2022-09-12T04:49:22;11.60;99.90
30678;DHT22;17437;47.188;8.896;2022-09-12T04:51:53;11.60;99.90
30678;DHT22;17437;47.188;8.896;2022-09-12T04:54:25;11.50;99.90
30678;DHT22;17437;47.188;8.896;2022-09-12T04:56:56;11.50;99.90
30678;DHT22;17437;47.188;8.896;2022-09-12T04:59:29;11.50;99.90
30678;DHT22;17437;47.188;8.896;2022-09-12T05:02:00;11.40;99.90
30678;DHT22;17437;47.188;8.896;2022-09-12T05:04:31;11.40;99.90
30678;DHT22;17437;47.188;8.896;2022-09-12T05:07:04;11.40;99.90
30678;DHT22;17437;47.188;8.896;2022-09-12T05:09:35;11.40;99.90
30678;DHT22;17437;47.188;8.896;2022-09-12T05:12:07;11.50;99.90
30678;DHT22;17437;47.188;8.896;2022-09-12T05:14:38;11.50;99.90
30678;DHT22;17437;47.188;8.896;2022-09-12T05:17:10;11.60;99.90
30678;DHT22;17437;47.188;8.896;2022-09-12T05:19:42;11.60;99.90
30678;DHT22;17437;47.188;8.896;2022-09-12T05:22:13;11.70;99.90
30678;DHT22;17437;47.188;8.896;2022-09-12T05:24:45;11.70;99.90
30678;DHT22;17437;47.188;8.896;2022-09-12T05:27:19;11.80;99.90
30678;DHT22;17437;47.188;8.896;2022-09-12T05:29:51;11.90;99.90
30678;DHT22;17437;47.188;8.896;2022-09-12T05:32:22;11.90;99.90
30678;DHT22;17437;47.188;8.896;2022-09-12T05:34:54;12.00;99.90
30678;DHT22;17437;47.188;8.896;2022-09-12T05:37:25;12.00;99.90
30678;DHT22;17437;47.188;8.896;2022-09-12T05:39:58;12.00;99.90
30678;DHT22;17437;47.188;8.896;2022-09-12T05:42:30;12.10;99.90
30678;DHT22;17437;47.188;8.896;2022-09-12T05:45:02;12.10;99.90
30678;DHT22;17437;47.188;8.896;2022-09-12T05:47:33;12.10;99.90
30678;DHT22;17437;47.188;8.896;2022-09-12T05:50:06;12.20;99.90
30678;DHT22;17437;47.188;8.896;2022-09-12T05:52:40;12.30;99.90
30678;DHT22;17437;47.188;8.896;2022-09-12T05:55:11;12.50;99.90
30678;DHT22;17437;47.188;8.896;2022-09-12T05:57:44;12.60;99.90
30678;DHT22;17437;47.188;8.896;2022-09-12T06:00:16;12.70;99.90
30678;DHT22;17437;47.188;8.896;2022-09-12T06:02:52;12.80;99.90
30678;DHT22;17437;47.188;8.896;2022-09-12T06:05:23;12.90;99.90
30678;DHT22;17437;47.188;8.896;2022-09-12T06:07:55;13.70;99.90
30678;DHT22;17437;47.188;8.896;2022-09-12T06:10:26;15.40;99.90
30678;DHT22;17437;47.188;8.896;2022-09-12T06:12:57;16.70;99.90
30678;DHT22;17437;47.188;8.896;2022-09-12T06:15:29;17.60;99.90
30678;DHT22;17437;47.188;8.896;2022-09-12T06:18:00;18.30;99.90
30678;DHT22;17437;47.188;8.896;2022-09-12T06:20:31;18.90;99.90
30678;DHT22;17437;47.188;8.896;2022-09-12T06:23:03;19.40;99.90
30678;DHT22;17437;47.188;8.896;2022-09-12T06:25:35;19.80;99.90
30678;DHT22;17437;47.188;8.896;2022-09-12T06:28:06;20.20;99.90
30678;DHT22;17437;47.188;8.896;2022-09-12T06:30:38;20.40;99.90
30678;DHT22;17437;47.188;8.896;2022-09-12T06:33:09;20.60;99.90
30678;DHT22;17437;47.188;8.896;2022-09-12T06:35:41;20.70;99.90
30678;DHT22;17437;47.188;8.896;2022-09-12T06:38:13;20.90;99.90
30678;DHT22;17437;47.188;8.896;2022-09-12T06:40:45;21.20;99.90
30678;DHT22;17437;47.188;8.896;2022-09-12T06:43:16;21.50;99.90
30678;DHT22;17437;47.188;8.896;2022-09-12T06:45:49;21.30;99.90
30678;DHT22;17437;47.188;8.896;2022-09-12T06:48:21;21.40;99.90
30678;DHT22;17437;47.188;8.896;2022-09-12T06:50:56;21.40;99.90
30678;DHT22;17437;47.188;8.896;2022-09-12T06:53:29;21.40;99.90
30678;DHT22;17437;47.188;8.896;2022-09-12T06:56:04;21.20;99.90
30678;DHT22;17437;47.188;8.896;2022-09-12T06:58:36;21.30;99.90
30678;DHT22;17437;47.188;8.896;2022-09-12T07:01:10;20.90;99.90
30678;DHT22;17437;47.188;8.896;2022-09-12T07:03:45;20.20;99.90
30678;DHT22;17437;47.188;8.896;2022-09-12T07:06:16;19.70;99.90
30678;DHT22;17437;47.188;8.896;2022-09-12T07:08:49;19.20;99.90
30678;DHT22;17437;47.188;8.896;2022-09-12T07:11:22;18.60;99.90
30678;DHT22;17437;47.188;8.896;2022-09-12T07:13:55;18.00;99.90
30678;DHT22;17437;47.188;8.896;2022-09-12T07:16:27;17.60;99.90
30678;DHT22;17437;47.188;8.896;2022-09-12T07:19:00;17.20;99.90
30678;DHT22;17437;47.188;8.896;2022-09-12T07:21:32;16.90;99.90
30678;DHT22;17437;47.188;8.896;2022-09-12T07:24:07;16.60;99.90
30678;DHT22;17437;47.188;8.896;2022-09-12T07:26:39;16.40;99.90
30678;DHT22;17437;47.188;8.896;2022-09-12T07:29:15;16.40;99.90
30678;DHT22;17437;47.188;8.896;2022-09-12T07:31:48;16.30;99.90
30678;DHT22;17437;47.188;8.896;2022-09-12T07:34:19;16.30;99.90
30678;DHT22;17437;47.188;8.896;2022-09-12T07:36:51;16.40;99.90
30678;DHT22;17437;47.188;8.896;2022-09-12T07:39:22;16.50;99.90
30678;DHT22;17437;47.188;8.896;2022-09-12T07:41:54;16.50;99.90
30678;DHT22;17437;47.188;8.896;2022-09-12T07:44:26;16.60;99.90
30678;DHT22;17437;47.188;8.896;2022-09-12T07:46:58;16.50;99.90
30678;DHT22;17437;47.188;8.896;2022-09-12T07:49:29;16.50;99.90
30678;DHT22;17437;47.188;8.896;2022-09-12T07:52:02;16.70;99.90
30678;DHT22;17437;47.188;8.896;2022-09-12T07:54:33;16.80;99.90
30678;DHT22;17437;47.188;8.896;2022-09-12T07:57:05;16.70;99.90
30678;DHT22;17437;47.188;8.896;2022-09-12T07:59:36;16.80;99.90
30678;DHT22;17437;47.188;8.896;2022-09-12T08:02:11;17.00;99.90
30678;DHT22;17437;47.188;8.896;2022-09-12T08:04:46;17.10;99.90
30678;DHT22;17437;47.188;8.896;2022-09-12T08:07:18;17.20;99.90
30678;DHT22;17437;47.188;8.896;2022-09-12T08:09:49;17.30;99.90
30678;DHT22;17437;47.188;8.896;2022-09-12T08:12:22;17.30;99.90
30678;DHT22;17437;47.188;8.896;2022-09-12T08:14:54;17.40;99.90
30678;DHT22;17437;47.188;8.896;2022-09-12T08:17:25;17.50;99.90
30678;DHT22;17437;47.188;8.896;2022-09-12T08:19:56;17.60;99.90
30678;DHT22;17437;47.188;8.896;2022-09-12T08:22:30;17.70;99.90
30678;DHT22;17437;47.188;8.896;2022-09-12T08:25:02;17.70;99.90
30678;DHT22;17437;47.188;8.896;2022-09-12T08:27:33;17.70;99.90
30678;DHT22;17437;47.188;8.896;2022-09-12T08:30:06;17.80;99.90
30678;DHT22;17437;47.188;8.896;2022-09-12T08:32:38;17.80;99.90
30678;DHT22;17437;47.188;8.896;2022-09-12T08:35:10;17.80;99.90
30678;DHT22;17437;47.188;8.896;2022-09-12T08:37:42;17.90;99.90
30678;DHT22;17437;47.188;8.896;2022-09-12T08:40:16;17.80;99.90
30678;DHT22;17437;47.188;8.896;2022-09-12T08:42:53;17.80;99.90
30678;DHT22;17437;47.188;8.896;2022-09-12T08:45:28;17.70;99.90
30678;DHT22;17437;47.188;8.896;2022-09-12T08:48:03;17.70;99.90
30678;DHT22;17437;47.188;8.896;2022-09-12T08:50:35;17.90;99.90
30678;DHT22;17437;47.188;8.896;2022-09-12T08:53:11;17.90;99.90
30678;DHT22;17437;47.188;8.896;2022-09-12T08:55:44;17.80;99.90
30678;DHT22;17437;47.188;8.896;2022-09-12T08:58:17;17.90;99.90
30678;DHT22;17437;47.188;8.896;2022-09-12T09:01:01;18.10;99.90
30678;DHT22;17437;47.188;8.896;2022-09-12T09:03:52;18.30;99.90
30678;DHT22;17437;47.188;8.896;2022-09-12T09:06:41;18.30;99.90
30678;DHT22;17437;47.188;8.896;2022-09-12T09:09:14;18.30;99.90
30678;DHT22;17437;47.188;8.896;2022-09-12T09:11:55;18.20;99.90
30678;DHT22;17437;47.188;8.896;2022-09-12T09:14:39;18.40;99.90
30678;DHT22;17437;47.188;8.896;2022-09-12T09:17:23;18.50;99.90
30678;DHT22;17437;47.188;8.896;2022-09-12T09:20:00;18.60;99.90
30678;DHT22;17437;47.188;8.896;2022-09-12T09:22:37;18.70;99.90
30678;DHT22;17437;47.188;8.896;2022-09-12T09:25:14;18.70;99.90
30678;DHT22;17437;47.188;8.896;2022-09-12T09:27:50;18.70;99.90
30678;DHT22;17437;47.188;8.896;2022-09-12T09:30:22;18.70;99.90
30678;DHT22;17437;47.188;8.896;2022-09-12T09:32:56;18.80;99.90
30678;DHT22;17437;47.188;8.896;2022-09-12T09:35:36;18.80;99.90
30678;DHT22;17437;47.188;8.896;2022-09-12T09:38:12;18.90;99.90
30678;DHT22;17437;47.188;8.896;2022-09-12T09:40:49;19.00;99.90
30678;DHT22;17437;47.188;8.896;2022-09-12T09:43:22;19.00;99.90
30678;DHT22;17437;47.188;8.896;2022-09-12T09:45:57;19.10;99.90
30678;DHT22;17437;47.188;8.896;2022-09-12T09:48:31;19.10;99.90
30678;DHT22;17437;47.188;8.896;2022-09-12T09:51:04;19.20;99.90
30678;DHT22;17437;47.188;8.896;2022-09-12T09:53:42;19.40;99.90
30678;DHT22;17437;47.188;8.896;2022-09-12T09:56:18;19.60;99.90
30678;DHT22;17437;47.188;8.896;2022-09-12T09:58:51;19.80;99.90
30678;DHT22;17437;47.188;8.896;2022-09-12T10:01:24;19.90;99.90
30678;DHT22;17437;47.188;8.896;2022-09-12T10:03:56;20.00;99.90
30678;DHT22;17437;47.188;8.896;2022-09-12T10:06:33;20.20;99.90
30678;DHT22;17437;47.188;8.896;2022-09-12T10:09:22;20.30;99.90
30678;DHT22;17437;47.188;8.896;2022-09-12T10:11:55;20.40;99.90
30678;DHT22;17437;47.188;8.896;2022-09-12T10:14:36;20.50;99.90
30678;DHT22;17437;47.188;8.896;2022-09-12T10:17:27;20.70;99.90
30678;DHT22;17437;47.188;8.896;2022-09-12T10:20:01;20.60;99.90
30678;DHT22;17437;47.188;8.896;2022-09-12T10:22:34;20.50;99.90
30678;DHT22;17437;47.188;8.896;2022-09-12T10:25:10;20.40;99.90
30678;DHT22;17437;47.188;8.896;2022-09-12T10:27:42;20.50;99.90
30678;DHT22;17437;47.188;8.896;2022-09-12T10:30:19;20.70;99.90
30678;DHT22;17437;47.188;8.896;2022-09-12T10:32:53;20.80;99.90
30678;DHT22;17437;47.188;8.896;2022-09-12T10:35:27;20.80;99.90
30678;DHT22;17437;47.188;8.896;2022-09-12T10:38:02;20.90;99.90
30678;DHT22;17437;47.188;8.896;2022-09-12T10:40:36;21.00;99.90
30678;DHT22;17437;47.188;8.896;2022-09-12T10:43:17;21.20;99.90
30678;DHT22;17437;47.188;8.896;2022-09-12T10:45:48;21.30;99.90
30678;DHT22;17437;47.188;8.896;2022-09-12T10:48:28;21.40;99.90
30678;DHT22;17437;47.188;8.896;2022-09-12T10:51:01;21.40;99.90
30678;DHT22;17437;47.188;8.896;2022-09-12T10:53:38;21.40;99.90
30678;DHT22;17437;47.188;8.896;2022-09-12T10:56:12;21.50;99.90
30678;DHT22;17437;47.188;8.896;2022-09-12T10:59:08;21.40;99.90
30678;DHT22;17437;47.188;8.896;2022-09-12T11:01:44;21.50;99.90
30678;DHT22;17437;47.188;8.896;2022-09-12T11:04:25;21.60;99.90
30678;DHT22;17437;47.188;8.896;2022-09-12T11:07:17;21.70;99.90
30678;DHT22;17437;47.188;8.896;2022-09-12T11:09:47;21.70;99.90
30678;DHT22;17437;47.188;8.896;2022-09-12T11:12:22;21.80;99.90
30678;DHT22;17437;47.188;8.896;2022-09-12T11:15:02;21.80;99.90
30678;DHT22;17437;47.188;8.896;2022-09-12T11:17:41;22.00;99.90
30678;DHT22;17437;47.188;8.896;2022-09-12T11:20:52;22.00;99.90
30678;DHT22;17437;47.188;8.896;2022-09-12T11:29:40;21.90;99.90
30678;DHT22;17437;47.188;8.896;2022-09-12T11:32:37;21.90;99.90
30678;DHT22;17437;47.188;8.896;2022-09-12T11:35:16;21.90;99.90
30678;DHT22;17437;47.188;8.896;2022-09-12T11:37:56;22.00;99.90
30678;DHT22;17437;47.188;8.896;2022-09-12T11:40:32;22.00;99.90
30678;DHT22;17437;47.188;8.896;2022-09-12T11:43:06;22.10;99.90
30678;DHT22;17437;47.188;8.896;2022-09-12T11:45:40;22.20;99.90
30678;DHT22;17437;47.188;8.896;2022-09-12T11:48:17;22.10;99.90
30678;DHT22;17437;47.188;8.896;2022-09-12T11:50:46;22.10;99.90
30678;DHT22;17437;47.188;8.896;2022-09-12T11:53:20;22.10;99.90
30678;DHT22;17437;47.188;8.896;2022-09-12T11:55:56;22.30;99.90
30678;DHT22;17437;47.188;8.896;2022-09-12T11:58:28;22.30;99.90
30678;DHT22;17437;47.188;8.896;2022-09-12T12:01:05;22.30;99.90
30678;DHT22;17437;47.188;8.896;2022-09-12T12:03:38;22.30;99.90
30678;DHT22;17437;47.188;8.896;2022-09-12T12:06:14;22.40;99.90
30678;DHT22;17437;47.188;8.896;2022-09-12T12:08:49;22.50;99.90
30678;DHT22;17437;47.188;8.896;2022-09-12T12:11:28;22.50;99.90
30678;DHT22;17437;47.188;8.896;2022-09-12T12:14:11;22.50;99.90
30678;DHT22;17437;47.188;8.896;2022-09-12T12:16:40;22.50;99.90
30678;DHT22;17437;47.188;8.896;2022-09-12T12:19:25;22.60;99.90
30678;DHT22;17437;47.188;8.896;2022-09-12T12:22:04;22.70;99.90
30678;DHT22;17437;47.188;8.896;2022-09-12T12:24:52;22.80;99.90
30678;DHT22;17437;47.188;8.896;2022-09-12T12:27:44;22.80;99.90
30678;DHT22;17437;47.188;8.896;2022-09-12T12:29:57;22.80;99.90
30678;DHT22;17437;47.188;8.896;2022-09-12T12:32:30;22.80;99.90
30678;DHT22;17437;47.188;8.896;2022-09-12T12:37:55;22.90;99.90
30678;DHT22;17437;47.188;8.896;2022-09-12T12:40:30;22.90;99.90
30678;DHT22;17437;47.188;8.896;2022-09-12T12:46:13;22.90;99.90
30678;DHT22;17437;47.188;8.896;2022-09-12T12:48:55;22.90;99.90
30678;DHT22;17437;47.188;8.896;2022-09-12T12:51:54;22.90;99.90
30678;DHT22;17437;47.188;8.896;2022-09-12T12:54:33;22.80;99.90
30678;DHT22;17437;47.188;8.896;2022-09-12T12:57:25;22.80;99.90
30678;DHT22;17437;47.188;8.896;2022-09-12T13:00:03;22.80;99.90
30678;DHT22;17437;47.188;8.896;2022-09-12T13:02:37;22.90;99.90
30678;DHT22;17437;47.188;8.896;2022-09-12T13:05:18;22.90;99.90
30678;DHT22;17437;47.188;8.896;2022-09-12T13:07:55;22.90;99.90
30678;DHT22;17437;47.188;8.896;2022-09-12T13:10:29;22.80;99.90
30678;DHT22;17437;47.188;8.896;2022-09-12T13:13:02;22.90;99.90
30678;DHT22;17437;47.188;8.896;2022-09-12T13:15:53;23.10;99.90
30678;DHT22;17437;47.188;8.896;2022-09-12T13:18:26;23.10;99.90
30678;DHT22;17437;47.188;8.896;2022-09-12T13:21:07;23.10;99.90
30678;DHT22;17437;47.188;8.896;2022-09-12T13:23:36;23.20;99.90
30678;DHT22;17437;47.188;8.896;2022-09-12T13:26:12;23.10;99.90
30678;DHT22;17437;47.188;8.896;2022-09-12T13:28:44;23.30;99.90
30678;DHT22;17437;47.188;8.896;2022-09-12T13:31:20;23.40;99.90
30678;DHT22;17437;47.188;8.896;2022-09-12T13:33:54;23.40;99.90
30678;DHT22;17437;47.188;8.896;2022-09-12T13:37:00;23.50;99.90
30678;DHT22;17437;47.188;8.896;2022-09-12T13:39:33;23.50;99.90
30678;DHT22;17437;47.188;8.896;2022-09-12T13:42:40;23.50;99.90
30678;DHT22;17437;47.188;8.896;2022-09-12T13:45:14;23.50;99.90
30678;DHT22;17437;47.188;8.896;2022-09-12T13:47:49;23.40;99.90
30678;DHT22;17437;47.188;8.896;2022-09-12T13:50:24;23.40;99.90
30678;DHT22;17437;47.188;8.896;2022-09-12T13:53:00;23.40;99.90
30678;DHT22;17437;47.188;8.896;2022-09-12T13:55:33;23.50;99.90
30678;DHT22;17437;47.188;8.896;2022-09-12T13:58:14;23.60;99.90
30678;DHT22;17437;47.188;8.896;2022-09-12T14:00:45;23.70;99.90
30678;DHT22;17437;47.188;8.896;2022-09-12T14:03:26;23.70;99.90
30678;DHT22;17437;47.188;8.896;2022-09-12T14:06:16;23.80;99.90
30678;DHT22;17437;47.188;8.896;2022-09-12T14:08:49;23.90;99.90
30678;DHT22;17437;47.188;8.896;2022-09-12T14:11:24;23.90;99.90
30678;DHT22;17437;47.188;8.896;2022-09-12T14:13:56;23.80;99.90
30678;DHT22;17437;47.188;8.896;2022-09-12T14:16:28;23.90;99.90
30678;DHT22;17437;47.188;8.896;2022-09-12T14:19:02;23.90;99.90
30678;DHT22;17437;47.188;8.896;2022-09-12T14:21:35;23.80;99.90
30678;DHT22;17437;47.188;8.896;2022-09-12T14:24:08;23.90;99.90
30678;DHT22;17437;47.188;8.896;2022-09-12T14:26:42;24.00;99.90
30678;DHT22;17437;47.188;8.896;2022-09-12T14:29:15;23.90;99.90
30678;DHT22;17437;47.188;8.896;2022-09-12T14:31:59;23.80;99.90
30678;DHT22;17437;47.188;8.896;2022-09-12T14:34:31;23.80;99.90
30678;DHT22;17437;47.188;8.896;2022-09-12T14:37:04;23.70;99.90
30678;DHT22;17437;47.188;8.896;2022-09-12T14:39:39;23.70;99.90
30678;DHT22;17437;47.188;8.896;2022-09-12T14:42:14;23.90;99.90
30678;DHT22;17437;47.188;8.896;2022-09-12T14:44:52;24.00;99.90
30678;DHT22;17437;47.188;8.896;2022-09-12T14:47:26;24.10;99.90
30678;DHT22;17437;47.188;8.896;2022-09-12T14:49:59;24.10;99.90
30678;DHT22;17437;47.188;8.896;2022-09-12T14:52:32;24.20;99.90
30678;DHT22;17437;47.188;8.896;2022-09-12T14:55:18;24.20;99.90
30678;DHT22;17437;47.188;8.896;2022-09-12T14:58:13;24.20;99.90
30678;DHT22;17437;47.188;8.896;2022-09-12T15:00:57;24.20;99.90
30678;DHT22;17437;47.188;8.896;2022-09-12T15:03:33;24.20;99.90
30678;DHT22;17437;47.188;8.896;2022-09-12T15:06:17;24.10;99.90
30678;DHT22;17437;47.188;8.896;2022-09-12T15:08:49;24.10;99.90
30678;DHT22;17437;47.188;8.896;2022-09-12T15:11:22;24.00;99.90
30678;DHT22;17437;47.188;8.896;2022-09-12T15:13:54;23.90;99.90
30678;DHT22;17437;47.188;8.896;2022-09-12T15:16:25;23.90;99.90
30678;DHT22;17437;47.188;8.896;2022-09-12T15:18:57;23.90;99.90
30678;DHT22;17437;47.188;8.896;2022-09-12T15:21:30;23.90;99.90
30678;DHT22;17437;47.188;8.896;2022-09-12T15:24:02;23.90;99.90
30678;DHT22;17437;47.188;8.896;2022-09-12T15:26:35;23.80;99.90
30678;DHT22;17437;47.188;8.896;2022-09-12T15:29:07;23.80;99.90
30678;DHT22;17437;47.188;8.896;2022-09-12T15:31:39;23.80;99.90
30678;DHT22;17437;47.188;8.896;2022-09-12T15:34:10;23.70;99.90
30678;DHT22;17437;47.188;8.896;2022-09-12T15:36:42;23.80;99.90
30678;DHT22;17437;47.188;8.896;2022-09-12T15:39:13;23.80;99.90
30678;DHT22;17437;47.188;8.896;2022-09-12T15:41:44;23.80;99.90
30678;DHT22;17437;47.188;8.896;2022-09-12T15:44:17;23.80;99.90
30678;DHT22;17437;47.188;8.896;2022-09-12T15:46:49;23.80;99.90
30678;DHT22;17437;47.188;8.896;2022-09-12T15:49:20;23.80;99.90
30678;DHT22;17437;47.188;8.896;2022-09-12T15:51:52;23.80;99.90
30678;DHT22;17437;47.188;8.896;2022-09-12T15:54:25;23.70;99.90
30678;DHT22;17437;47.188;8.896;2022-09-12T15:56:57;23.60;99.90
30678;DHT22;17437;47.188;8.896;2022-09-12T15:59:28;23.50;99.90
30678;DHT22;17437;47.188;8.896;2022-09-12T16:02:01;23.40;99.90
30678;DHT22;17437;47.188;8.896;2022-09-12T16:04:32;23.30;99.90
30678;DHT22;17437;47.188;8.896;2022-09-12T16:07:06;23.30;99.90
30678;DHT22;17437;47.188;8.896;2022-09-12T16:09:38;23.20;99.90
30678;DHT22;17437;47.188;8.896;2022-09-12T16:12:10;23.10;99.90
30678;DHT22;17437;47.188;8.896;2022-09-12T16:14:42;23.00;99.90
30678;DHT22;17437;47.188;8.896;2022-09-12T16:17:13;22.90;99.90
30678;DHT22;17437;47.188;8.896;2022-09-12T16:19:45;22.80;99.90
30678;DHT22;17437;47.188;8.896;2022-09-12T16:22:17;22.80;99.90
30678;DHT22;17437;47.188;8.896;2022-09-12T16:24:48;22.70;99.90
30678;DHT22;17437;47.188;8.896;2022-09-12T16:27:20;22.60;99.90
30678;DHT22;17437;47.188;8.896;2022-09-12T16:29:51;22.50;99.90
30678;DHT22;17437;47.188;8.896;2022-09-12T16:32:24;22.50;99.90
30678;DHT22;17437;47.188;8.896;2022-09-12T16:34:55;22.40;99.90